TimeEDT,TemperatureF,Dew PointF,Humidity,Sea Level PressureIn,VisibilityMPH,Wind Direction,Wind SpeedMPH,Gust SpeedMPH,PrecipitationIn,Events,Conditions,WindDirDegrees,DateUTC
12:53 AM,45.0,36.0,71,30.22,10.0,Calm,Calm,-,N/A,,Overcast,0,2012-10-25 04:53:00
1:53 AM,46.0,37.0,71,30.23,10.0,Calm,Calm,-,N/A,,Overcast,0,2012-10-25 05:53:00
2:53 AM,45.0,37.9,76,30.23,10.0,Calm,Calm,-,N/A,,Overcast,0,2012-10-25 06:53:00
3:53 AM,45.0,39.0,80,30.24,10.0,Calm,Calm,-,N/A,,Overcast,0,2012-10-25 07:53:00
4:53 AM,46.0,36.0,68,30.24,10.0,Calm,Calm,-,N/A,,Overcast,0,2012-10-25 08:53:00
5:53 AM,45.0,37.0,74,30.25,10.0,Calm,Calm,-,N/A,,Overcast,0,2012-10-25 09:53:00
6:53 AM,45.0,39.0,80,30.26,10.0,Calm,Calm,-,N/A,,Overcast,0,2012-10-25 10:53:00
7:53 AM,41.0,36.0,82,30.28,10.0,Calm,Calm,-,N/A,,Partly Cloudy,0,2012-10-25 11:53:00
8:53 AM,46.9,37.0,68,30.28,10.0,Calm,Calm,-,N/A,,Clear,0,2012-10-25 12:53:00
9:53 AM,52.0,37.9,59,30.28,8.0,Calm,Calm,-,N/A,,Clear,0,2012-10-25 13:53:00
10:53 AM,57.0,37.0,47,30.27,10.0,Calm,Calm,-,N/A,,Clear,0,2012-10-25 14:53:00
11:53 AM,57.9,36.0,44,30.27,10.0,West,4.6,-,N/A,,Overcast,270,2012-10-25 15:53:00
12:53 PM,59.0,35.1,41,30.25,10.0,Variable,4.6,-,N/A,,Overcast,0,2012-10-25 16:53:00
2:53 PM,61.0,33.1,35,30.22,10.0,SSW,8.1,-,N/A,,Overcast,200,2012-10-25 18:53:00
3:53 PM,61.0,36.0,39,30.22,10.0,SW,8.1,-,N/A,,Overcast,230,2012-10-25 19:53:00
4:53 PM,59.0,37.0,44,30.22,10.0,South,5.8,-,N/A,,Mostly Cloudy,190,2012-10-25 20:53:00
5:53 PM,54.0,41.0,62,30.22,10.0,Calm,Calm,-,N/A,,Mostly Cloudy,0,2012-10-25 21:53:00
6:53 PM,52.0,43.0,71,30.22,10.0,Calm,Calm,-,N/A,,Overcast,0,2012-10-25 22:53:00
7:27 PM,50.0,41.0,71,30.23,10.0,Calm,Calm,-,N/A,,Scattered Clouds,0,2012-10-25 23:27:00
7:53 PM,48.0,39.9,74,30.23,10.0,SSE,4.6,-,N/A,,Clear,160,2012-10-25 23:53:00
8:53 PM,46.0,39.9,79,30.24,10.0,Calm,Calm,-,N/A,,Clear,0,2012-10-26 00:53:00
9:53 PM,45.0,39.9,82,30.24,10.0,Calm,Calm,-,N/A,,Clear,0,2012-10-26 01:53:00
10:53 PM,44.1,39.9,85,30.23,10.0,Calm,Calm,-,N/A,,Clear,0,2012-10-26 02:53:00
11:53 PM,43.0,39.0,86,30.23,10.0,Calm,Calm,-,N/A,,Clear,0,2012-10-26 03:53:00